createdAt,value
2023-03-02T00:00:16.043Z,654.00
2023-03-02T00:01:16.167Z,655.00
2023-03-02T00:02:16.358Z,654.00
2023-03-02T00:03:16.416Z,654.00
2023-03-02T00:04:16.645Z,654.00
2023-03-02T00:05:16.685Z,654.00
2023-03-02T00:06:16.832Z,654.00
2023-03-02T00:07:16.992Z,654.00
2023-03-02T00:08:17.084Z,654.00
2023-03-02T00:09:17.385Z,654.00
2023-03-02T00:10:17.368Z,654.00
2023-03-02T00:11:17.502Z,654.00
2023-03-02T00:12:17.952Z,654.00
2023-03-02T00:13:17.781Z,654.00
2023-03-02T00:14:17.936Z,654.00
2023-03-02T00:15:18.090Z,654.00
2023-03-02T00:16:18.235Z,654.00
2023-03-02T00:17:18.298Z,654.00
2023-03-02T00:18:18.434Z,654.00
2023-03-02T00:19:18.594Z,655.00
2023-03-02T00:20:18.736Z,655.00
2023-03-02T00:21:18.826Z,655.00
2023-03-02T00:22:18.977Z,655.00
2023-03-02T00:23:19.132Z,655.00
2023-03-02T00:24:19.259Z,655.00
2023-03-02T00:25:19.458Z,655.00
2023-03-02T00:26:19.551Z,654.00
2023-03-02T00:27:19.699Z,654.00
2023-03-02T00:28:19.782Z,655.00
2023-03-02T00:29:19.921Z,655.00
2023-03-02T00:30:20.050Z,655.00
2023-03-02T00:31:20.238Z,655.00
2023-03-02T00:32:20.370Z,655.00
2023-03-02T00:33:20.574Z,654.00
2023-03-02T00:34:20.647Z,654.00
2023-03-02T00:35:20.717Z,654.00
2023-03-02T00:36:20.933Z,655.00
2023-03-02T00:37:20.994Z,655.00
2023-03-02T00:38:21.121Z,655.00
2023-03-02T00:39:21.251Z,655.00
2023-03-02T00:40:21.369Z,655.00
2023-03-02T00:41:21.589Z,655.00
2023-03-02T00:42:21.692Z,655.00
2023-03-02T00:43:21.766Z,654.00
2023-03-02T00:44:21.954Z,655.00
2023-03-02T00:45:22.078Z,654.00
2023-03-02T00:46:22.310Z,654.00
2023-03-02T00:47:22.481Z,655.00
2023-03-02T00:48:22.427Z,655.00
2023-03-02T00:49:22.566Z,655.00
2023-03-02T00:50:22.705Z,655.00
2023-03-02T00:51:22.825Z,655.00
2023-03-02T00:52:22.958Z,655.00
2023-03-02T00:53:23.203Z,655.00
2023-03-02T00:54:23.224Z,655.00
2023-03-02T00:55:23.365Z,655.00
2023-03-02T00:56:23.486Z,655.00
2023-03-02T00:57:23.624Z,655.00
2023-03-02T00:58:23.874Z,655.00
2023-03-02T00:59:23.929Z,655.00
2023-03-02T01:00:24.074Z,655.00
2023-03-02T01:01:24.155Z,655.00
2023-03-02T01:02:24.400Z,655.00
2023-03-02T01:03:24.632Z,654.00
2023-03-02T01:04:24.583Z,654.00
2023-03-02T01:05:24.716Z,654.00
2023-03-02T01:06:24.876Z,655.00
2023-03-02T01:07:24.981Z,655.00
2023-03-02T01:08:25.367Z,655.00
2023-03-02T01:09:25.269Z,654.00
2023-03-02T01:10:25.354Z,654.00
2023-03-02T01:11:25.476Z,654.00
2023-03-02T01:12:25.649Z,654.00
2023-03-02T01:13:25.742Z,654.00
2023-03-02T01:14:25.902Z,654.00
2023-03-02T01:15:26.122Z,654.00
2023-03-02T01:16:26.173Z,654.00
2023-03-02T01:17:26.274Z,654.00
2023-03-02T01:18:26.410Z,654.00
2023-03-02T01:19:26.541Z,654.00
2023-03-02T01:20:26.702Z,655.00
2023-03-02T01:21:26.811Z,654.00
2023-03-02T01:22:26.927Z,654.00
2023-03-02T01:23:27.068Z,654.00
2023-03-02T01:24:27.285Z,654.00
2023-03-02T01:25:27.317Z,654.00
2023-03-02T01:26:27.461Z,654.00
2023-03-02T01:27:27.603Z,654.00
2023-03-02T01:28:27.694Z,654.00
2023-03-02T01:29:27.845Z,654.00
2023-03-02T01:30:27.961Z,654.00
2023-03-02T01:31:28.134Z,654.00
2023-03-02T01:32:28.275Z,654.00
2023-03-02T01:33:28.463Z,654.00
2023-03-02T01:34:28.544Z,654.00
2023-03-02T01:35:28.680Z,654.00
2023-03-02T01:36:28.867Z,654.00
2023-03-02T01:37:28.897Z,654.00
2023-03-02T01:38:29.087Z,654.00
2023-03-02T01:39:29.171Z,654.00
2023-03-02T01:40:29.315Z,654.00
2023-03-02T01:41:29.555Z,654.00
2023-03-02T01:42:29.540Z,654.00
2023-03-02T01:43:29.652Z,654.00
2023-03-02T01:44:29.814Z,654.00
2023-03-02T01:45:29.931Z,654.00
2023-03-02T01:46:30.602Z,654.00
2023-03-02T01:47:30.201Z,654.00
2023-03-02T01:48:30.339Z,654.00
2023-03-02T01:49:30.482Z,654.00
2023-03-02T01:50:30.602Z,655.00
2023-03-02T01:51:30.771Z,655.00
2023-03-02T01:52:30.852Z,654.00
2023-03-02T01:53:31.080Z,654.00
2023-03-02T01:54:31.102Z,655.00
2023-03-02T01:55:31.229Z,655.00
2023-03-02T01:56:31.711Z,654.00
2023-03-02T01:57:31.496Z,654.00
2023-03-02T01:58:31.632Z,654.00
2023-03-02T01:59:31.766Z,654.00
2023-03-02T02:00:31.897Z,654.00
2023-03-02T02:01:32.107Z,654.00
2023-03-02T02:02:32.140Z,654.00
2023-03-02T02:03:32.281Z,655.00
2023-03-02T02:04:32.395Z,655.00
2023-03-02T02:05:32.518Z,654.00
2023-03-02T02:06:33.316Z,655.00
2023-03-02T02:07:32.874Z,655.00
2023-03-02T02:08:32.906Z,655.00
2023-03-02T02:09:33.026Z,655.00
2023-03-02T02:10:33.156Z,655.00
2023-03-02T02:11:33.295Z,655.00
2023-03-02T02:12:33.516Z,655.00
2023-03-02T02:13:33.655Z,655.00
2023-03-02T02:14:33.711Z,655.00
2023-03-02T02:15:33.805Z,655.00
2023-03-02T02:16:34.386Z,655.00
2023-03-02T02:17:34.154Z,655.00
2023-03-02T02:18:34.193Z,655.00
2023-03-02T02:19:34.343Z,655.00
2023-03-02T02:20:34.431Z,655.00
2023-03-02T02:21:34.560Z,655.00
2023-03-02T02:22:34.720Z,655.00
2023-03-02T02:23:34.839Z,655.00
2023-03-02T02:24:35.109Z,655.00
2023-03-02T02:25:35.090Z,655.00
2023-03-02T02:26:35.603Z,655.00
2023-03-02T02:27:35.499Z,655.00
2023-03-02T02:28:35.545Z,655.00
2023-03-02T02:29:35.606Z,655.00
2023-03-02T02:30:35.727Z,655.00
2023-03-02T02:31:35.918Z,655.00
2023-03-02T02:32:36.082Z,655.00
2023-03-02T02:33:36.257Z,654.00
2023-03-02T02:34:36.289Z,654.00
2023-03-02T02:35:36.490Z,655.00
2023-03-02T02:36:36.544Z,655.00
2023-03-02T02:37:36.685Z,654.00
2023-03-02T02:38:36.880Z,654.00
2023-03-02T02:39:36.954Z,654.00
2023-03-02T02:40:37.116Z,655.00
2023-03-02T02:41:37.214Z,655.00
2023-03-02T02:42:37.548Z,655.00
2023-03-02T02:43:37.562Z,655.00
2023-03-02T02:44:37.602Z,655.00
2023-03-02T02:45:37.798Z,655.00
2023-03-02T02:46:37.896Z,655.00
2023-03-02T02:47:38.001Z,655.00
2023-03-02T02:48:38.251Z,655.00
2023-03-02T02:49:38.253Z,654.00
2023-03-02T02:50:38.410Z,654.00
2023-03-02T02:51:38.526Z,654.00
2023-03-02T02:52:38.642Z,654.00
2023-03-02T02:53:38.947Z,655.00
2023-03-02T02:54:38.925Z,655.00
2023-03-02T02:55:39.050Z,655.00
2023-03-02T02:56:39.188Z,654.00
2023-03-02T02:57:39.317Z,654.00
2023-03-02T02:58:39.518Z,654.00
2023-03-02T02:59:39.587Z,654.00
2023-03-02T03:00:39.728Z,654.00
2023-03-02T03:01:40.035Z,654.00
2023-03-02T03:02:40.001Z,654.00
2023-03-02T03:03:40.255Z,654.00
2023-03-02T03:04:40.344Z,654.00
2023-03-02T03:05:40.417Z,654.00
2023-03-02T03:06:40.553Z,654.00
2023-03-02T03:07:40.695Z,654.00
2023-03-02T03:08:40.957Z,654.00
2023-03-02T03:09:41.034Z,654.00
2023-03-02T03:10:41.059Z,654.00
2023-03-02T03:11:41.197Z,654.00
2023-03-02T03:12:41.328Z,654.00
2023-03-02T03:13:41.547Z,654.00
2023-03-02T03:14:41.647Z,654.00
2023-03-02T03:15:41.752Z,654.00
2023-03-02T03:16:41.910Z,654.00
2023-03-02T03:17:42.023Z,654.00
2023-03-02T03:18:42.109Z,654.00
2023-03-02T03:19:42.326Z,654.00
2023-03-02T03:20:42.396Z,654.00
2023-03-02T03:21:42.535Z,654.00
2023-03-02T03:22:42.628Z,654.00
2023-03-02T03:23:42.780Z,654.00
2023-03-02T03:24:42.939Z,654.00
2023-03-02T03:25:43.056Z,654.00
2023-03-02T03:26:43.134Z,654.00
2023-03-02T03:27:43.773Z,654.00
2023-03-02T03:28:43.382Z,654.00
2023-03-02T03:29:43.600Z,654.00
2023-03-02T03:30:43.733Z,654.00
2023-03-02T03:31:43.749Z,654.00
2023-03-02T03:32:43.908Z,654.00
2023-03-02T03:33:44.136Z,654.00
2023-03-02T03:34:44.169Z,654.00
2023-03-02T03:35:44.389Z,654.00
2023-03-02T03:36:44.459Z,654.00
2023-03-02T03:37:44.516Z,654.00
2023-03-02T03:38:44.656Z,654.00
2023-03-02T03:39:44.860Z,654.00
2023-03-02T03:40:44.922Z,654.00
2023-03-02T03:41:45.067Z,654.00
2023-03-02T03:42:45.201Z,654.00
2023-03-02T03:43:45.333Z,654.00
2023-03-02T03:44:45.482Z,654.00
2023-03-02T03:45:45.774Z,654.00
2023-03-02T03:46:45.813Z,654.00
2023-03-02T03:47:45.890Z,654.00
2023-03-02T03:48:45.950Z,654.00
2023-03-02T03:49:46.098Z,654.00
2023-03-02T03:50:46.218Z,654.00
2023-03-02T03:51:46.360Z,654.00
2023-03-02T03:52:46.472Z,654.00
2023-03-02T03:53:46.703Z,654.00
2023-03-02T03:54:46.731Z,654.00
2023-03-02T03:55:46.857Z,654.00
2023-03-02T03:56:47.047Z,654.00
2023-03-02T03:57:47.128Z,654.00
2023-03-02T03:58:47.332Z,653.00
2023-03-02T03:59:47.396Z,654.00
2023-03-02T04:00:47.616Z,654.00
2023-03-02T04:01:47.715Z,654.00
2023-03-02T04:02:47.808Z,654.00
2023-03-02T04:03:47.913Z,654.00
2023-03-02T04:04:48.065Z,654.00
2023-03-02T04:05:48.225Z,654.00
2023-03-02T04:06:48.282Z,654.00
2023-03-02T04:07:48.427Z,654.00
2023-03-02T04:08:48.591Z,654.00
2023-03-02T04:09:48.670Z,654.00
2023-03-02T04:10:48.810Z,654.00
2023-03-02T04:11:48.994Z,653.00
2023-03-02T04:12:49.073Z,654.00
2023-03-02T04:13:49.294Z,654.00
2023-03-02T04:14:49.319Z,654.00
2023-03-02T04:15:49.489Z,654.00
2023-03-02T04:16:49.680Z,654.00
2023-03-02T04:17:49.708Z,654.00
2023-03-02T04:18:49.857Z,654.00
2023-03-02T04:19:50.015Z,653.00
2023-03-02T04:20:50.296Z,654.00
2023-03-02T04:21:50.254Z,653.00
2023-03-02T04:22:50.375Z,653.00
2023-03-02T04:23:50.536Z,653.00
2023-03-02T04:24:50.675Z,653.00
2023-03-02T04:25:50.796Z,653.00
2023-03-02T04:26:50.933Z,653.00
2023-03-02T04:27:51.070Z,654.00
2023-03-02T04:28:51.200Z,654.00
2023-03-02T04:29:51.440Z,654.00
2023-03-02T04:30:51.550Z,654.00
2023-03-02T04:31:51.764Z,654.00
2023-03-02T04:32:51.733Z,653.00
2023-03-02T04:33:51.883Z,653.00
2023-03-02T04:34:51.984Z,653.00
2023-03-02T04:35:52.158Z,653.00
2023-03-02T04:36:52.275Z,653.00
2023-03-02T04:37:52.376Z,653.00
2023-03-02T04:38:52.493Z,653.00
2023-03-02T04:39:52.675Z,653.00
2023-03-02T04:40:52.801Z,653.00
2023-03-02T04:41:52.879Z,653.00
2023-03-02T04:42:53.042Z,653.00
2023-03-02T04:43:53.301Z,653.00
2023-03-02T04:44:53.318Z,653.00
2023-03-02T04:45:53.425Z,653.00
2023-03-02T04:46:53.608Z,653.00
2023-03-02T04:47:53.689Z,653.00
2023-03-02T04:48:53.890Z,653.00
2023-03-02T04:49:53.920Z,653.00
2023-03-02T04:50:54.061Z,653.00
2023-03-02T04:51:54.211Z,654.00
2023-03-02T04:52:54.352Z,654.00
2023-03-02T04:53:54.501Z,654.00
2023-03-02T04:54:54.703Z,653.00
2023-03-02T04:55:54.764Z,653.00
2023-03-02T04:56:54.946Z,653.00
2023-03-02T04:57:55.034Z,653.00
2023-03-02T04:58:55.177Z,653.00
2023-03-02T04:59:55.266Z,653.00
2023-03-02T05:00:55.426Z,653.00
2023-03-02T05:01:55.576Z,653.00
2023-03-02T05:02:55.647Z,653.00
2023-03-02T05:03:55.889Z,653.00
2023-03-02T05:04:56.037Z,654.00
2023-03-02T05:05:56.062Z,654.00
2023-03-02T05:06:56.179Z,654.00
2023-03-02T05:07:56.305Z,653.00
2023-03-02T05:08:56.513Z,654.00
2023-03-02T05:09:56.672Z,653.00
2023-03-02T05:10:56.691Z,653.00
2023-03-02T05:11:56.854Z,653.00
2023-03-02T05:12:56.981Z,653.00
2023-03-02T05:13:57.182Z,653.00
2023-03-02T05:14:57.207Z,653.00
2023-03-02T05:15:57.459Z,653.00
2023-03-02T05:16:57.477Z,653.00
2023-03-02T05:17:57.718Z,653.00
2023-03-02T05:18:57.743Z,653.00
2023-03-02T05:19:57.911Z,653.00
2023-03-02T05:20:58.046Z,653.00
2023-03-02T05:21:58.158Z,653.00
2023-03-02T05:22:58.259Z,653.00
2023-03-02T05:23:58.407Z,653.00
2023-03-02T05:24:58.519Z,653.00
2023-03-02T05:25:58.722Z,653.00
2023-03-02T05:26:58.797Z,653.00
2023-03-02T05:27:58.945Z,653.00
2023-03-02T05:28:59.082Z,653.00
2023-03-02T05:29:59.210Z,653.00
2023-03-02T05:30:59.484Z,653.00
2023-03-02T05:31:59.548Z,653.00
2023-03-02T05:32:59.627Z,653.00
2023-03-02T05:33:59.917Z,653.00
2023-03-02T05:34:59.908Z,653.00
2023-03-02T05:36:00.025Z,653.00
2023-03-02T05:37:00.218Z,653.00
2023-03-02T05:38:00.295Z,653.00
2023-03-02T05:39:00.599Z,653.00
2023-03-02T05:40:00.522Z,653.00
2023-03-02T05:41:00.671Z,653.00
2023-03-02T05:42:00.785Z,653.00
2023-03-02T05:43:01.005Z,653.00
2023-03-02T05:44:01.053Z,653.00
2023-03-02T05:45:01.232Z,653.00
2023-03-02T05:46:01.300Z,653.00
2023-03-02T05:47:01.489Z,653.00
2023-03-02T05:48:01.598Z,653.00
2023-03-02T05:49:01.670Z,653.00
2023-03-02T05:50:01.796Z,653.00
2023-03-02T05:51:01.961Z,653.00
2023-03-02T05:52:02.090Z,653.00
2023-03-02T05:53:02.232Z,653.00
2023-03-02T05:54:02.486Z,653.00
2023-03-02T05:55:02.483Z,653.00
2023-03-02T05:56:02.628Z,653.00
2023-03-02T05:57:02.805Z,653.00
2023-03-02T05:58:02.883Z,653.00
2023-03-02T05:59:03.038Z,653.00
2023-03-02T06:00:03.156Z,653.00
2023-03-02T06:01:03.293Z,653.00
2023-03-02T06:02:03.552Z,653.00
2023-03-02T06:03:03.645Z,653.00
2023-03-02T06:04:03.738Z,653.00
2023-03-02T06:05:03.821Z,653.00
2023-03-02T06:06:03.959Z,653.00
2023-03-02T06:07:04.104Z,653.00
2023-03-02T06:08:04.260Z,653.00
2023-03-02T06:09:04.357Z,653.00
2023-03-02T06:10:04.500Z,653.00
2023-03-02T06:11:04.657Z,653.00
2023-03-02T06:12:04.749Z,653.00
2023-03-02T06:13:04.976Z,653.00
2023-03-02T06:14:05.197Z,653.00
2023-03-02T06:15:05.173Z,653.00
2023-03-02T06:16:05.293Z,653.00
2023-03-02T06:17:05.376Z,653.00
2023-03-02T06:18:05.512Z,653.00
2023-03-02T06:19:05.680Z,653.00
2023-03-02T06:20:05.793Z,653.00
2023-03-02T06:21:05.912Z,653.00
2023-03-02T06:22:06.059Z,653.00
2023-03-02T06:23:06.194Z,653.00
2023-03-02T06:24:06.354Z,653.00
2023-03-02T06:25:06.433Z,653.00
2023-03-02T06:26:06.548Z,653.00
2023-03-02T06:27:06.686Z,653.00
2023-03-02T06:28:06.800Z,653.00
2023-03-02T06:29:07.020Z,653.00
2023-03-02T06:30:07.062Z,653.00
2023-03-02T06:31:07.195Z,653.00
2023-03-02T06:32:07.446Z,653.00
2023-03-02T06:33:07.499Z,653.00
2023-03-02T06:34:07.662Z,653.00
2023-03-02T06:35:07.735Z,653.00
2023-03-02T06:36:08.157Z,653.00
2023-03-02T06:37:08.023Z,653.00
2023-03-02T06:38:08.089Z,653.00
2023-03-02T06:39:08.170Z,653.00
2023-03-02T06:40:08.319Z,653.00
2023-03-02T06:41:08.468Z,653.00
2023-03-02T06:42:08.591Z,653.00
2023-03-02T06:43:08.713Z,653.00
2023-03-02T06:44:08.819Z,653.00
2023-03-02T06:45:09.554Z,653.00
2023-03-02T06:46:09.306Z,653.00
2023-03-02T06:47:09.218Z,653.00
2023-03-02T06:48:09.347Z,653.00
2023-03-02T06:49:09.510Z,653.00
2023-03-02T06:50:09.640Z,653.00
2023-03-02T06:51:10.815Z,653.00
2023-03-02T06:52:09.894Z,653.00
2023-03-02T06:53:10.054Z,653.00
2023-03-02T06:54:10.237Z,653.00
2023-03-02T06:55:10.364Z,653.00
2023-03-02T06:56:10.984Z,653.00
2023-03-02T06:57:10.598Z,653.00
2023-03-02T06:58:10.692Z,653.00
2023-03-02T06:59:10.833Z,653.00
2023-03-02T07:00:10.964Z,653.00
2023-03-02T07:01:11.176Z,653.00
2023-03-02T07:02:11.276Z,653.00
2023-03-02T07:03:11.479Z,653.00
2023-03-02T07:04:11.522Z,654.00
2023-03-02T07:05:11.719Z,653.00
2023-03-02T07:06:11.797Z,653.00
2023-03-02T07:07:11.935Z,654.00
2023-03-02T07:08:12.086Z,653.00
2023-03-02T07:09:12.233Z,653.00
2023-03-02T07:10:12.361Z,653.00
2023-03-02T07:11:12.485Z,653.00
2023-03-02T07:12:12.665Z,653.00
2023-03-02T07:13:12.727Z,653.00
2023-03-02T07:14:12.974Z,653.00
2023-03-02T07:15:12.982Z,654.00
2023-03-02T07:16:13.106Z,654.00
2023-03-02T07:17:13.279Z,654.00
2023-03-02T07:18:13.426Z,654.00
2023-03-02T07:19:13.503Z,654.00
2023-03-02T07:20:13.627Z,654.00
2023-03-02T07:21:13.810Z,655.00
2023-03-02T07:22:13.891Z,655.00
2023-03-02T07:23:14.185Z,655.00
2023-03-02T07:24:14.149Z,655.00
2023-03-02T07:25:14.277Z,655.00
2023-03-02T07:26:14.441Z,655.00
2023-03-02T07:27:14.526Z,655.00
2023-03-02T07:28:14.626Z,655.00
2023-03-02T07:29:14.747Z,655.00
2023-03-02T07:30:14.936Z,655.00
2023-03-02T07:31:15.032Z,655.00
2023-03-02T07:32:15.209Z,655.00
2023-03-02T07:33:15.185Z,655.00
2023-03-02T07:34:15.385Z,656.00
2023-03-02T07:35:15.413Z,655.00
2023-03-02T07:36:15.576Z,656.00
2023-03-02T07:37:15.616Z,656.00
2023-03-02T07:38:15.721Z,656.00
2023-03-02T07:39:15.852Z,656.00
2023-03-02T07:40:15.945Z,656.00
2023-03-02T07:41:16.043Z,656.00
2023-03-02T07:42:16.156Z,656.00
2023-03-02T07:43:16.271Z,656.00
2023-03-02T07:44:16.352Z,656.00
2023-03-02T07:45:16.510Z,656.00
2023-03-02T07:46:16.689Z,656.00
2023-03-02T07:47:16.704Z,656.00
2023-03-02T07:48:16.802Z,656.00
2023-03-02T07:49:16.917Z,656.00
2023-03-02T07:50:17.029Z,656.00
2023-03-02T07:51:17.187Z,656.00
2023-03-02T07:52:17.228Z,656.00
2023-03-02T07:53:17.371Z,656.00
2023-03-02T07:54:17.488Z,655.00
2023-03-02T07:55:17.539Z,656.00
2023-03-02T07:56:17.751Z,656.00
2023-03-02T07:57:17.761Z,656.00
2023-03-02T07:58:17.908Z,656.00
2023-03-02T07:59:17.993Z,656.00
2023-03-02T08:00:18.090Z,656.00
2023-03-02T08:01:18.234Z,656.00
2023-03-02T08:02:18.308Z,656.00
2023-03-02T08:03:18.409Z,656.00
2023-03-02T08:04:18.517Z,656.00
2023-03-02T08:05:18.624Z,656.00
2023-03-02T08:06:18.749Z,656.00
2023-03-02T08:07:18.841Z,656.00
2023-03-02T08:08:18.959Z,656.00
2023-03-02T08:09:19.067Z,656.00
2023-03-02T08:10:19.170Z,656.00
2023-03-02T08:11:19.304Z,656.00
2023-03-02T08:12:19.390Z,656.00
2023-03-02T08:13:19.516Z,656.00
2023-03-02T08:14:19.686Z,656.00
2023-03-02T08:15:19.737Z,656.00
2023-03-02T08:16:19.943Z,656.00
2023-03-02T08:17:20.019Z,656.00
2023-03-02T08:18:20.057Z,656.00
2023-03-02T08:19:20.169Z,656.00
2023-03-02T08:20:20.283Z,656.00
2023-03-02T08:21:20.389Z,656.00
2023-03-02T08:22:20.557Z,656.00
2023-03-02T08:23:20.647Z,656.00
2023-03-02T08:24:20.703Z,656.00
2023-03-02T08:25:20.818Z,656.00
2023-03-02T08:26:20.944Z,656.00
2023-03-02T08:27:21.325Z,656.00
2023-03-02T08:28:21.165Z,656.00
2023-03-02T08:29:21.264Z,656.00
2023-03-02T08:30:21.363Z,656.00
2023-03-02T08:31:21.554Z,656.00
2023-03-02T08:32:21.673Z,656.00
2023-03-02T08:33:21.791Z,656.00
2023-03-02T08:34:21.896Z,656.00
2023-03-02T08:35:21.986Z,656.00
2023-03-02T08:36:22.090Z,656.00
2023-03-02T08:37:22.162Z,656.00
2023-03-02T08:38:22.303Z,656.00
2023-03-02T08:39:22.397Z,656.00
2023-03-02T08:40:22.522Z,656.00
2023-03-02T08:41:22.751Z,656.00
2023-03-02T08:42:22.771Z,656.00
2023-03-02T08:43:22.941Z,656.00
2023-03-02T08:44:23.052Z,656.00
2023-03-02T08:45:23.132Z,656.00
2023-03-02T08:46:23.222Z,656.00
2023-03-02T08:47:23.329Z,656.00
2023-03-02T08:48:23.420Z,656.00
2023-03-02T08:49:23.649Z,656.00
2023-03-02T08:50:23.640Z,656.00
2023-03-02T08:51:23.760Z,655.00
2023-03-02T08:52:23.859Z,655.00
2023-03-02T08:53:23.974Z,656.00
2023-03-02T08:54:24.174Z,656.00
2023-03-02T08:55:24.429Z,656.00
2023-03-02T08:56:24.345Z,655.00
2023-03-02T08:57:24.429Z,656.00
2023-03-02T08:58:24.546Z,656.00
2023-03-02T08:59:24.654Z,656.00
2023-03-02T09:00:24.795Z,656.00
2023-03-02T09:01:24.995Z,656.00
2023-03-02T09:02:25.015Z,656.00
2023-03-02T09:03:25.141Z,656.00
2023-03-02T09:04:25.330Z,656.00
2023-03-02T09:05:25.352Z,656.00
2023-03-02T09:06:25.482Z,656.00
2023-03-02T09:07:25.578Z,656.00
2023-03-02T09:08:25.708Z,656.00
2023-03-02T09:09:25.794Z,656.00
2023-03-02T09:10:26.191Z,656.00
2023-03-02T09:11:26.010Z,656.00
2023-03-02T09:12:26.124Z,656.00
2023-03-02T09:13:26.251Z,656.00
2023-03-02T09:14:26.437Z,656.00
2023-03-02T09:15:26.458Z,656.00
2023-03-02T09:16:26.616Z,656.00
2023-03-02T09:17:26.681Z,656.00
2023-03-02T09:18:26.798Z,656.00
2023-03-02T09:19:26.901Z,656.00
2023-03-02T09:20:27.011Z,656.00
2023-03-02T09:21:27.119Z,656.00
2023-03-02T09:36:20.199Z,660.00
2023-03-02T09:37:20.295Z,659.00
2023-03-02T09:38:20.401Z,658.00
2023-03-02T09:39:20.531Z,657.00
2023-03-02T09:40:20.642Z,657.00
2023-03-02T09:41:20.861Z,657.00
2023-03-02T09:42:20.849Z,656.00
2023-03-02T09:43:20.959Z,656.00
2023-03-02T09:44:21.089Z,656.00
2023-03-02T09:45:21.167Z,656.00
2023-03-02T09:46:21.340Z,656.00
2023-03-02T09:47:34.592Z,656.00
2023-03-02T09:48:22.551Z,656.00
2023-03-02T09:49:21.660Z,656.00
2023-03-02T09:50:21.742Z,656.00
2023-03-02T09:51:21.856Z,656.00
2023-03-02T09:52:21.962Z,656.00
2023-03-02T09:53:22.065Z,656.00
2023-03-02T09:54:22.308Z,656.00
2023-03-02T09:55:22.275Z,656.00
2023-03-02T09:56:22.422Z,656.00
2023-03-02T09:57:22.605Z,656.00
2023-03-02T09:58:22.654Z,656.00
2023-03-02T09:59:22.825Z,656.00
2023-03-02T10:00:22.945Z,656.00
2023-03-02T10:01:22.982Z,656.00
2023-03-02T10:02:23.093Z,656.00
2023-03-02T10:03:23.263Z,656.00
2023-03-02T10:04:23.382Z,656.00
2023-03-02T10:05:23.585Z,656.00
2023-03-02T10:06:23.592Z,656.00
2023-03-02T10:07:23.697Z,656.00
2023-03-02T10:08:23.811Z,656.00
2023-03-02T10:09:23.933Z,656.00
2023-03-02T10:10:24.283Z,656.00
2023-03-02T10:11:24.131Z,655.00
2023-03-02T10:12:24.233Z,655.00
2023-03-02T10:13:24.368Z,656.00
2023-03-02T10:14:24.466Z,656.00
2023-03-02T10:15:24.581Z,656.00
2023-03-02T10:16:24.788Z,656.00
2023-03-02T10:17:24.822Z,656.00
2023-03-02T10:18:25.035Z,656.00
2023-03-02T10:19:25.039Z,655.00
2023-03-02T10:20:25.195Z,655.00
2023-03-02T10:21:25.261Z,655.00
2023-03-02T10:22:25.362Z,655.00
2023-03-02T10:23:25.510Z,655.00
2023-03-02T10:24:27.485Z,655.00
2023-03-02T10:25:25.670Z,655.00
2023-03-02T10:26:25.795Z,655.00
2023-03-02T10:27:25.971Z,655.00
2023-03-02T10:28:26.012Z,655.00
2023-03-02T10:29:26.137Z,655.00
2023-03-02T10:30:26.276Z,655.00
2023-03-02T10:31:26.363Z,655.00
2023-03-02T10:32:26.631Z,655.00
2023-03-02T10:33:26.528Z,655.00
2023-03-02T10:34:26.641Z,655.00
2023-03-02T10:35:26.789Z,655.00
2023-03-02T10:36:26.999Z,655.00
2023-03-02T10:37:26.967Z,655.00
2023-03-02T10:38:27.088Z,655.00
2023-03-02T10:39:27.168Z,655.00
2023-03-02T10:40:27.287Z,655.00
2023-03-02T10:41:27.405Z,655.00
2023-03-02T10:42:27.517Z,655.00
2023-03-02T10:43:27.656Z,655.00
2023-03-02T10:44:27.712Z,655.00
2023-03-02T10:45:27.854Z,655.00
2023-03-02T10:46:28.002Z,654.00
2023-03-02T10:47:28.107Z,655.00
2023-03-02T10:48:28.224Z,655.00
2023-03-02T10:49:28.351Z,655.00
2023-03-02T10:50:28.474Z,655.00
2023-03-02T10:51:28.691Z,655.00
2023-03-02T10:52:28.802Z,655.00
2023-03-02T10:53:28.872Z,655.00
2023-03-02T10:54:28.982Z,654.00
2023-03-02T10:55:29.104Z,654.00
2023-03-02T10:56:29.266Z,654.00
2023-03-02T10:57:29.467Z,654.00
2023-03-02T10:58:29.503Z,654.00
2023-03-02T10:59:29.632Z,654.00
2023-03-02T11:00:29.751Z,654.00
2023-03-02T11:01:29.923Z,654.00
2023-03-02T11:02:30.138Z,654.00
2023-03-02T11:03:30.165Z,654.00
2023-03-02T11:04:30.436Z,654.00
2023-03-02T11:05:30.459Z,654.00
2023-03-02T11:06:30.761Z,654.00
2023-03-02T11:07:30.792Z,654.00
2023-03-02T11:08:30.829Z,654.00
2023-03-02T11:09:30.964Z,654.00
2023-03-02T11:10:31.119Z,654.00
2023-03-02T11:11:32.044Z,654.00
2023-03-02T11:13:07.409Z,655.00
2023-03-02T11:13:31.442Z,655.00
2023-03-02T11:14:31.578Z,654.00
2023-03-02T11:15:31.951Z,655.00
2023-03-02T11:16:31.918Z,655.00
2023-03-02T11:17:31.954Z,655.00
2023-03-02T11:18:32.105Z,655.00
2023-03-02T11:19:32.231Z,656.00
2023-03-02T11:20:32.358Z,656.00
2023-03-02T11:21:32.838Z,656.00
2023-03-02T11:22:32.725Z,656.00
2023-03-02T11:23:32.828Z,656.00
2023-03-02T11:24:32.897Z,656.00
2023-03-02T11:25:33.041Z,656.00
2023-03-02T11:26:33.214Z,655.00
2023-03-02T11:27:33.294Z,656.00
2023-03-02T11:28:33.426Z,655.00
2023-03-02T11:29:33.576Z,655.00
2023-03-02T11:30:33.648Z,655.00
2023-03-02T11:31:34.163Z,655.00
2023-03-02T11:32:34.061Z,656.00
2023-03-02T11:33:34.157Z,656.00
2023-03-02T11:34:34.397Z,656.00
2023-03-02T11:35:34.351Z,656.00
2023-03-02T11:36:34.414Z,656.00
2023-03-02T11:37:34.660Z,656.00
2023-03-02T11:38:35.066Z,656.00
2023-03-02T11:39:35.151Z,656.00
2023-03-02T11:40:34.971Z,656.00
2023-03-02T11:41:35.455Z,657.00
2023-03-02T11:42:35.279Z,657.00
2023-03-02T11:43:35.341Z,657.00
2023-03-02T11:44:35.585Z,656.00
2023-03-02T11:45:35.610Z,656.00
2023-03-02T11:46:35.818Z,656.00
2023-03-02T11:47:35.895Z,656.00
2023-03-02T11:48:36.004Z,656.00
2023-03-02T11:49:36.242Z,656.00
2023-03-02T11:50:36.272Z,656.00
2023-03-02T11:51:37.873Z,656.00
2023-03-02T11:52:36.529Z,656.00
2023-03-02T11:53:36.762Z,656.00
2023-03-02T11:54:36.814Z,656.00
2023-03-02T11:55:37.062Z,657.00
2023-03-02T11:56:37.015Z,656.00
2023-03-02T11:57:38.639Z,657.00
2023-03-02T11:58:37.643Z,657.00
2023-03-02T11:59:37.522Z,657.00
2023-03-02T12:00:37.564Z,657.00
2023-03-02T12:01:37.719Z,657.00
2023-03-02T12:02:37.816Z,658.00
2023-03-02T12:03:37.944Z,659.00
2023-03-02T12:04:38.108Z,659.00
2023-03-02T12:05:38.260Z,659.00
2023-03-02T12:06:38.322Z,660.00
2023-03-02T12:07:38.448Z,660.00
2023-03-02T12:08:38.596Z,660.00
2023-03-02T12:09:38.839Z,660.00
2023-03-02T12:10:38.962Z,661.00
2023-03-02T12:11:39.014Z,661.00
2023-03-02T12:12:39.111Z,661.00
2023-03-02T12:13:39.318Z,662.00
2023-03-02T12:14:39.333Z,662.00
2023-03-02T12:15:39.508Z,663.00
2023-03-02T12:16:39.667Z,662.00
2023-03-02T12:17:39.726Z,662.00
2023-03-02T12:18:39.847Z,662.00
2023-03-02T12:19:39.993Z,662.00
2023-03-02T12:20:40.117Z,663.00
2023-03-02T12:21:40.278Z,663.00
2023-03-02T12:22:40.376Z,663.00
2023-03-02T12:23:40.498Z,663.00
2023-03-02T12:24:40.683Z,663.00
2023-03-02T12:25:40.765Z,662.00
2023-03-02T12:26:40.886Z,662.00
2023-03-02T12:27:41.139Z,662.00
2023-03-02T12:28:41.139Z,662.00
2023-03-02T12:29:41.318Z,662.00
2023-03-02T12:30:41.389Z,662.00
2023-03-02T12:31:41.540Z,663.00
2023-03-02T12:32:41.737Z,663.00
2023-03-02T12:33:41.763Z,663.00
2023-03-02T12:34:41.895Z,663.00
2023-03-02T12:35:42.066Z,663.00
2023-03-02T12:36:42.181Z,664.00
2023-03-02T12:37:42.354Z,664.00
2023-03-02T12:38:42.491Z,663.00
2023-03-02T12:39:42.571Z,663.00
2023-03-02T12:40:42.683Z,664.00
2023-03-02T12:41:42.807Z,664.00
2023-03-02T12:42:43.044Z,665.00
2023-03-02T12:43:43.074Z,665.00